Time;durP1;ratioP1;P1;durP2;ratioP2;P2;SDS_P1;SDS_P2;PMS_P1;PMS_P2;Temp;Humidity;BMP_temperature;BMP_pressure;BME280_temperature;BME280_humidity;BME280_pressure;Samples;Min_cycle;Max_cycle;Signal;HPM_P1;HPM_P2
2023/05/29 04:00:57;;;;;;;3.00;1.80;;;17.60;62.80;;;;;;5873709;22;21061;-75
2023/05/29 04:03:24;;;;;;;2.77;2.00;;;17.60;62.90;;;;;;5032864;28;20771;-75
2023/05/29 04:05:50;;;;;;;2.50;2.10;;;17.70;62.70;;;;;;5032700;28;20483;-74
2023/05/29 04:08:17;;;;;;;3.47;2.17;;;17.70;62.80;;;;;;5032724;28;20451;-75
2023/05/29 04:10:44;;;;;;;2.60;1.90;;;17.80;62.70;;;;;;5032685;28;20521;-75
2023/05/29 04:13:10;;;;;;;2.63;1.97;;;17.80;62.40;;;;;;5032710;28;20635;-75
2023/05/29 04:15:37;;;;;;;4.10;2.23;;;17.80;62.50;;;;;;5033212;28;20498;-74
2023/05/29 04:18:05;;;;;;;2.80;1.97;;;17.80;62.70;;;;;;5032663;28;20455;-74
2023/05/29 04:20:32;;;;;;;2.83;1.97;;;17.80;62.80;;;;;;5032520;28;20443;-75
2023/05/29 04:22:59;;;;;;;3.37;2.20;;;17.90;63.40;;;;;;5032855;28;20451;-75
2023/05/29 04:25:25;;;;;;;3.60;2.43;;;17.90;64.10;;;;;;5036124;28;20444;-75
2023/05/29 04:27:52;;;;;;;2.60;2.23;;;17.90;63.80;;;;;;5036011;28;20487;-75
2023/05/29 04:30:19;;;;;;;2.50;2.00;;;18.00;63.30;;;;;;5036235;28;20495;-74
2023/05/29 04:32:46;;;;;;;2.70;2.33;;;18.10;62.70;;;;;;5035978;28;20452;-74
2023/05/29 04:35:14;;;;;;;2.27;1.73;;;18.10;62.20;;;;;;5036064;28;20451;-76
2023/05/29 04:37:43;;;;;;;2.40;1.80;;;18.20;61.50;;;;;;5035893;28;20455;-75
2023/05/29 04:40:11;;;;;;;2.80;1.93;;;18.30;61.80;;;;;;5035588;28;20945;-76
2023/05/29 04:42:39;;;;;;;2.70;1.67;;;18.40;61.60;;;;;;5035808;28;20471;-76
2023/05/29 04:45:09;;;;;;;6.27;2.40;;;18.50;61.60;;;;;;5035760;28;20447;-76
2023/05/29 04:47:43;;;;;;;2.80;2.20;;;18.60;61.30;;;;;;5035659;28;20487;-76
2023/05/29 04:50:10;;;;;;;3.13;2.53;;;18.70;61.50;;;;;;5035758;28;20515;-75
2023/05/29 04:52:39;;;;;;;2.57;2.00;;;18.80;60.40;;;;;;5035631;28;20521;-76
2023/05/29 04:55:06;;;;;;;2.70;2.10;;;18.80;60.40;;;;;;5035593;28;20436;-76
2023/05/29 04:57:33;;;;;;;3.30;2.20;;;18.90;60.80;;;;;;5035223;28;20863;-76
2023/05/29 04:59:59;;;;;;;2.50;2.00;;;19.00;60.30;;;;;;5035562;28;20501;-76
2023/05/29 05:02:26;;;;;;;3.23;2.30;;;19.10;60.40;;;;;;5035012;28;20859;-75
2023/05/29 05:04:53;;;;;;;3.33;2.00;;;19.30;60.60;;;;;;5035128;28;21006;-76
2023/05/29 05:07:19;;;;;;;3.50;2.40;;;19.40;60.50;;;;;;5035291;28;20580;-75
2023/05/29 05:09:47;;;;;;;2.60;2.30;;;19.50;60.40;;;;;;5035314;28;20498;-76
2023/05/29 05:12:14;;;;;;;3.53;2.07;;;19.60;60.00;;;;;;5035282;28;20529;-75
2023/05/29 05:14:41;;;;;;;2.50;2.30;;;19.70;59.90;;;;;;5035213;28;20443;-75
2023/05/29 05:17:07;;;;;;;3.03;2.10;;;19.90;59.90;;;;;;5035223;28;20502;-76
2023/05/29 05:19:34;;;;;;;3.20;2.30;;;20.00;59.40;;;;;;5035120;28;20454;-76
2023/05/29 05:22:01;;;;;;;2.40;2.07;;;20.10;59.20;;;;;;5034693;28;20874;-75
2023/05/29 05:24:28;;;;;;;4.23;2.53;;;20.20;58.90;;;;;;5035117;28;20801;-76
2023/05/29 05:26:56;;;;;;;2.53;1.87;;;20.30;58.60;;;;;;5034936;28;20483;-77
2023/05/29 05:29:22;;;;;;;3.37;2.33;;;20.40;58.50;;;;;;5034892;28;20452;-76
2023/05/29 05:31:49;;;;;;;3.20;2.27;;;20.50;58.60;;;;;;5034868;28;20467;-76
2023/05/29 05:34:16;;;;;;;3.80;2.03;;;20.60;58.50;;;;;;5034411;28;20447;-75
2023/05/29 05:36:43;;;;;;;3.03;2.10;;;20.60;58.60;;;;;;5034211;28;20445;-76
2023/05/29 05:39:09;;;;;;;2.73;2.20;;;20.60;57.80;;;;;;5034807;28;20456;-76
2023/05/29 05:41:36;;;;;;;3.07;1.90;;;20.70;58.00;;;;;;5034614;28;20522;-76
2023/05/29 05:44:04;;;;;;;4.70;2.07;;;20.80;57.80;;;;;;5034674;28;20459;-76
2023/05/29 05:46:30;;;;;;;3.03;2.30;;;21.00;57.60;;;;;;5034533;28;20479;-76
2023/05/29 05:48:57;;;;;;;2.50;2.03;;;21.10;57.70;;;;;;5034327;28;20861;-76
2023/05/29 05:51:24;;;;;;;3.50;2.30;;;21.20;57.20;;;;;;5034530;28;20510;-76
2023/05/29 05:54:33;;;;;;;3.00;2.40;;;21.40;56.50;;;;;;5034764;28;20501;-77
2023/05/29 05:57:00;;;;;;;2.50;2.00;;;21.60;56.80;;;;;;5028189;28;20451;-76
2023/05/29 05:59:28;;;;;;;3.23;1.87;;;21.80;56.00;;;;;;5034466;28;20545;-76
2023/05/29 06:01:56;;;;;;;3.30;1.93;;;22.00;55.30;;;;;;5033935;28;20475;-77
2023/05/29 06:04:22;;;;;;;3.23;2.50;;;22.10;55.80;;;;;;5034358;28;20570;-77
2023/05/29 06:06:49;;;;;;;2.70;1.93;;;22.20;53.60;;;;;;5034156;28;20479;-76
2023/05/29 06:09:16;;;;;;;2.97;1.90;;;22.30;53.80;;;;;;5034189;28;20451;-76
2023/05/29 06:11:43;;;;;;;2.77;1.80;;;22.30;53.40;;;;;;5034108;28;20518;-77
2023/05/29 06:14:10;;;;;;;2.93;2.40;;;22.50;54.70;;;;;;5034181;28;20462;-77
2023/05/29 06:16:38;;;;;;;3.20;2.17;;;22.40;54.20;;;;;;5034076;28;20455;-77
2023/05/29 06:19:04;;;;;;;3.70;2.10;;;22.50;53.80;;;;;;5034072;28;20444;-77
2023/05/29 06:21:32;;;;;;;3.07;2.37;;;22.70;54.10;;;;;;5033621;28;21008;-76
2023/05/29 06:23:59;;;;;;;2.97;2.10;;;22.90;53.40;;;;;;5033970;28;20458;-77
2023/05/29 06:26:26;;;;;;;2.33;1.60;;;23.00;53.00;;;;;;5033782;28;20520;-75
2023/05/29 06:28:53;;;;;;;2.23;1.73;;;23.10;53.10;;;;;;5033795;28;20440;-77
2023/05/29 06:31:20;;;;;;;2.73;2.03;;;23.10;52.90;;;;;;5033684;28;20521;-76
2023/05/29 06:33:48;;;;;;;4.63;2.30;;;23.00;53.30;;;;;;5034554;28;20777;-76
2023/05/29 06:36:14;;;;;;;2.57;2.27;;;23.20;54.00;;;;;;5033677;28;20474;-76
2023/05/29 06:38:46;;;;;;;3.03;1.77;;;23.30;53.50;;;;;;5033654;28;20603;-76
2023/05/29 06:41:12;;;;;;;2.80;2.33;;;23.50;53.10;;;;;;5033606;28;20468;-76
2023/05/29 06:43:39;;;;;;;2.77;2.17;;;23.60;52.10;;;;;;5033589;28;20865;-76
2023/05/29 06:46:06;;;;;;;3.07;2.00;;;23.50;52.50;;;;;;5033202;28;20785;-76
2023/05/29 06:48:34;;;;;;;2.47;1.77;;;23.50;52.00;;;;;;5033463;28;20510;-76
2023/05/29 06:51:08;;;;;;;3.37;2.53;;;23.60;52.10;;;;;;5033328;28;20529;-76
2023/05/29 06:53:35;;;;;;;2.73;2.20;;;23.60;52.10;;;;;;5033549;28;20440;-76
2023/05/29 06:56:02;;;;;;;2.90;2.10;;;23.70;52.60;;;;;;5033108;28;20455;-77
2023/05/29 06:58:29;;;;;;;2.80;2.10;;;23.70;52.00;;;;;;5033472;28;20497;-76
2023/05/29 07:00:55;;;;;;;2.90;2.27;;;23.60;52.10;;;;;;5033037;28;20522;-77
2023/05/29 07:03:22;;;;;;;3.23;2.40;;;23.60;52.80;;;;;;5033337;28;20439;-77
2023/05/29 07:05:48;;;;;;;3.40;2.50;;;23.40;53.00;;;;;;5033337;28;20480;-77
2023/05/29 07:08:16;;;;;;;4.10;2.37;;;23.40;52.90;;;;;;5033259;28;20483;-77
2023/05/29 07:10:43;;;;;;;2.93;1.93;;;23.20;53.50;;;;;;5033172;28;20468;-76
2023/05/29 07:13:10;;;;;;;2.93;2.10;;;23.30;52.50;;;;;;5033182;28;20509;-76
2023/05/29 07:15:38;;;;;;;3.27;2.10;;;23.40;52.90;;;;;;5032861;28;20443;-76
2023/05/29 07:18:05;;;;;;;2.47;2.00;;;23.30;53.00;;;;;;5033232;28;20867;-76
2023/05/29 07:20:32;;;;;;;2.70;2.30;;;23.40;53.20;;;;;;5033190;28;20479;-76
2023/05/29 07:22:58;;;;;;;3.80;2.60;;;23.50;52.00;;;;;;5032820;28;20865;-76
2023/05/29 07:25:27;;;;;;;3.23;2.27;;;23.70;51.70;;;;;;5032893;28;21002;-76
2023/05/29 07:27:53;;;;;;;3.00;2.13;;;23.70;52.00;;;;;;5033066;28;20570;-77
2023/05/29 07:30:20;;;;;;;3.17;2.50;;;23.60;51.70;;;;;;5033043;28;20448;-76
2023/05/29 07:32:47;;;;;;;2.90;2.53;;;23.80;52.90;;;;;;5033021;28;20451;-76
2023/05/29 07:35:13;;;;;;;2.80;2.27;;;23.80;52.60;;;;;;5033070;28;20493;-76
2023/05/29 07:37:40;;;;;;;3.20;2.40;;;23.80;52.20;;;;;;5032797;28;20448;-76
2023/05/29 07:40:07;;;;;;;3.63;2.50;;;23.90;52.10;;;;;;5032953;28;20455;-77
2023/05/29 07:42:35;;;;;;;2.83;2.10;;;24.00;53.10;;;;;;5032871;28;20853;-77
2023/05/29 07:45:02;;;;;;;2.70;2.17;;;23.90;52.30;;;;;;5033171;28;20463;-76
2023/05/29 07:47:29;;;;;;;3.80;2.40;;;23.80;53.50;;;;;;5032851;28;20479;-76
2023/05/29 07:49:55;;;;;;;3.07;2.40;;;23.70;51.90;;;;;;5032924;28;20451;-77
2023/05/29 07:52:22;;;;;;;2.53;2.00;;;23.70;53.70;;;;;;5032794;28;20514;-76
2023/05/29 07:54:49;;;;;;;3.80;2.50;;;24.00;53.20;;;;;;5032765;28;20455;-75
2023/05/29 07:57:15;;;;;;;2.80;2.10;;;24.10;52.20;;;;;;5032833;28;20447;-75
2023/05/29 07:59:44;;;;;;;2.50;1.83;;;24.40;52.50;;;;;;5035803;28;20447;-74
2023/05/29 08:02:11;;;;;;;2.60;2.30;;;24.80;51.90;;;;;;5036037;28;20999;-74
2023/05/29 08:04:38;;;;;;;3.17;1.90;;;24.60;50.40;;;;;;5036566;28;20466;-74
2023/05/29 08:07:05;;;;;;;3.00;2.70;;;24.60;51.80;;;;;;5037156;28;20536;-75
2023/05/29 08:09:32;;;;;;;3.30;2.10;;;24.50;51.80;;;;;;5036470;28;20693;-73
2023/05/29 08:12:00;;;;;;;6.13;2.43;;;24.70;52.70;;;;;;5036315;28;20489;-72
2023/05/29 08:14:27;;;;;;;2.67;2.37;;;24.90;51.50;;;;;;5036414;28;20519;-73
2023/05/29 08:16:55;;;;;;;3.30;2.30;;;24.70;52.00;;;;;;5036322;28;20501;-73
2023/05/29 08:19:24;;;;;;;2.60;2.23;;;24.60;52.10;;;;;;5036004;28;20853;-73
2023/05/29 08:21:50;;;;;;;3.80;2.20;;;24.80;51.60;;;;;;5036139;28;20471;-73
2023/05/29 08:24:17;;;;;;;3.20;2.27;;;24.80;51.90;;;;;;5036221;28;20529;-72
2023/05/29 08:26:44;;;;;;;3.27;2.50;;;24.10;51.70;;;;;;5036129;28;20451;-73
2023/05/29 08:29:11;;;;;;;3.00;2.27;;;24.10;53.20;;;;;;5036313;28;20444;-73
2023/05/29 08:31:37;;;;;;;3.43;2.50;;;24.30;53.10;;;;;;5036017;28;20467;-73
2023/05/29 08:34:06;;;;;;;2.80;2.03;;;24.00;52.10;;;;;;5035849;28;20952;-73
2023/05/29 08:36:33;;;;;;;2.10;1.70;;;23.70;53.30;;;;;;5035828;28;20940;-73
2023/05/29 08:39:00;;;;;;;2.70;2.40;;;23.90;52.70;;;;;;5036105;28;20501;-74
2023/05/29 08:41:35;;;;;;;2.53;1.93;;;24.20;52.30;;;;;;5035853;28;20506;-73
2023/05/29 08:44:05;;;;;;;2.83;2.30;;;24.50;52.40;;;;;;5035601;28;20904;-73
2023/05/29 08:46:33;;;;;;;3.17;2.73;;;24.20;52.30;;;;;;5035561;28;20913;-73
2023/05/29 08:49:02;;;;;;;2.70;2.40;;;23.80;51.50;;;;;;5035782;28;20530;-73
2023/05/29 08:51:36;;;;;;;3.23;2.37;;;23.60;52.10;;;;;;5035643;28;20467;-73
2023/05/29 08:54:03;;;;;;;3.50;2.70;;;23.70;53.10;;;;;;5035868;28;20487;-73
2023/05/29 08:56:30;;;;;;;2.67;1.90;;;24.00;52.20;;;;;;5035395;28;21008;-72
2023/05/29 08:58:58;;;;;;;2.93;2.40;;;24.30;52.40;;;;;;5035637;28;20450;-73
2023/05/29 09:01:26;;;;;;;3.40;2.60;;;24.50;51.30;;;;;;5035258;28;20519;-73
2023/05/29 09:03:54;;;;;;;3.40;2.30;;;24.70;53.00;;;;;;5035517;28;20448;-72
2023/05/29 09:06:23;;;;;;;2.57;2.07;;;24.90;51.20;;;;;;5035509;28;20470;-73
2023/05/29 09:08:52;;;;;;;2.70;2.37;;;25.00;50.90;;;;;;5035208;28;20571;-72
2023/05/29 09:11:19;;;;;;;2.80;2.00;;;25.10;51.10;;;;;;5035297;28;20533;-72
2023/05/29 09:13:46;;;;;;;2.97;1.90;;;25.30;50.80;;;;;;5035380;28;20501;-73
2023/05/29 09:16:13;;;;;;;2.90;2.40;;;25.40;50.30;;;;;;5035225;28;20454;-73
2023/05/29 09:18:41;;;;;;;2.40;2.17;;;25.20;50.90;;;;;;5035316;28;20443;-73
2023/05/29 09:21:09;;;;;;;2.87;2.27;;;25.40;50.60;;;;;;5035165;28;20566;-72
2023/05/29 09:23:36;;;;;;;2.90;1.87;;;25.40;49.50;;;;;;5035155;28;20436;-72
2023/05/29 09:26:04;;;;;;;2.83;1.90;;;25.40;51.30;;;;;;5035165;28;20456;-72
2023/05/29 09:28:32;;;;;;;2.53;2.20;;;25.50;50.20;;;;;;5034670;28;20995;-72
2023/05/29 09:30:59;;;;;;;3.23;2.47;;;25.60;49.70;;;;;;5035799;28;20896;-73
2023/05/29 09:33:26;;;;;;;3.07;2.13;;;25.70;50.40;;;;;;5034998;28;20867;-72
2023/05/29 09:35:52;;;;;;;3.10;2.13;;;25.80;49.00;;;;;;5034870;28;20498;-72
2023/05/29 09:38:20;;;;;;;2.53;2.20;;;25.90;50.50;;;;;;5034853;28;20439;-73
2023/05/29 09:40:47;;;;;;;2.40;2.00;;;25.70;50.90;;;;;;5034829;28;20467;-72
2023/05/29 09:43:17;;;;;;;3.83;2.10;;;26.00;49.90;;;;;;5034797;28;20439;-72
2023/05/29 09:45:45;;;;;;;2.80;2.13;;;26.20;49.40;;;;;;5034480;28;21011;-72
2023/05/29 09:48:14;;;;;;;3.00;2.10;;;26.20;49.30;;;;;;5034613;28;20487;-72
2023/05/29 09:50:44;;;;;;;3.63;2.07;;;26.00;47.90;;;;;;5034543;28;20474;-73
2023/05/29 09:53:21;;;;;;;3.53;2.40;;;25.90;49.70;;;;;;5034578;28;20452;-75
2023/05/29 09:55:50;;;;;;;3.10;2.30;;;26.00;50.30;;;;;;5034566;28;20470;-74
2023/05/29 10:01:03;;;;;;;2.77;2.10;;;25.30;50.70;;;;;;5028935;28;20498;-74
2023/05/29 10:03:34;;;;;;;3.60;2.47;;;25.60;52.00;;;;;;5034372;28;20494;-74
2023/05/29 10:06:02;;;;;;;2.80;2.40;;;25.90;51.60;;;;;;5034035;28;20880;-73
2023/05/29 10:08:32;;;;;;;2.67;2.10;;;25.90;50.00;;;;;;5034013;28;20483;-74
2023/05/29 10:11:01;;;;;;;3.27;2.20;;;26.00;50.90;;;;;;5034102;28;20526;-74
2023/05/29 10:13:35;;;;;;;2.50;2.13;;;26.20;49.80;;;;;;5034153;28;20443;-74
2023/05/29 10:18:36;;;;;;;2.30;1.77;;;25.80;49.50;;;;;;5032864;28;20475;-74
2023/05/29 10:21:03;;;;;;;2.40;1.97;;;25.80;51.50;;;;;;5033447;28;20494;-74
2023/05/29 10:23:31;;;;;;;2.40;2.10;;;26.10;50.80;;;;;;5034026;28;20473;-74
2023/05/29 10:26:04;;;;;;;3.00;2.10;;;26.40;49.30;;;;;;5033843;28;20463;-74
2023/05/29 10:28:33;;;;;;;2.47;2.00;;;26.40;49.10;;;;;;5033650;28;20859;-74
2023/05/29 10:31:06;;;;;;;2.80;1.97;;;26.50;49.60;;;;;;5033877;28;20452;-74
2023/05/29 10:33:45;;;;;;;4.00;2.10;;;26.30;49.60;;;;;;5033901;28;20431;-73
2023/05/29 10:36:15;;;;;;;2.53;1.90;;;26.40;51.40;;;;;;5033689;28;20525;-75
2023/05/29 10:38:44;;;;;;;4.57;2.33;;;26.70;50.40;;;;;;5033413;28;20932;-76
2023/05/29 10:41:31;;;;;;;2.63;1.80;;;26.90;49.00;;;;;;5033654;28;20817;-76
2023/05/29 10:44:00;;;;;;;2.93;2.30;;;27.00;46.50;;;;;;5033334;28;20967;-76
2023/05/29 10:46:59;;;;;;;3.00;2.00;;;27.30;46.20;;;;;;5033532;28;20459;-76
2023/05/29 10:49:27;;;;;;;2.30;1.83;;;27.20;48.80;;;;;;5026515;28;21003;-76
2023/05/29 10:51:53;;;;;;;2.37;1.93;;;27.20;46.60;;;;;;5033476;28;20459;-76
2023/05/29 10:54:23;;;;;;;2.60;2.10;;;27.10;46.90;;;;;;5033479;28;20482;-76
2023/05/29 10:56:53;;;;;;;2.53;2.20;;;27.30;46.60;;;;;;5033332;28;20518;-76
2023/05/29 10:59:25;;;;;;;2.87;2.00;;;27.40;46.90;;;;;;5033469;28;20423;-76
2023/05/29 11:01:53;;;;;;;2.70;1.77;;;27.30;46.40;;;;;;5033420;28;20439;-72
2023/05/29 11:04:31;;;;;;;4.90;2.03;;;26.80;47.00;;;;;;5033363;28;20862;-74
2023/05/29 11:06:58;;;;;;;3.10;1.80;;;26.80;48.20;;;;;;5033226;28;20503;-75
2023/05/29 11:09:29;;;;;;;2.73;1.97;;;27.10;46.30;;;;;;5033097;28;20487;-76
2023/05/29 11:12:12;;;;;;;2.60;2.13;;;27.00;46.90;;;;;;5033164;28;20452;-76
2023/05/29 11:14:55;;;;;;;2.30;2.00;;;27.10;46.10;;;;;;5033267;28;20494;-76
2023/05/29 11:17:32;;;;;;;2.87;2.03;;;27.10;46.10;;;;;;5032867;28;20475;-76
2023/05/29 11:20:05;;;;;;;3.03;2.10;;;27.00;44.60;;;;;;5033142;28;20450;-76
2023/05/29 11:22:47;;;;;;;3.07;1.80;;;27.10;45.30;;;;;;5033317;28;20443;-77
2023/05/29 11:25:14;;;;;;;2.70;1.63;;;27.40;45.60;;;;;;5032899;28;20786;-77
2023/05/29 11:27:41;;;;;;;3.10;2.37;;;27.60;44.50;;;;;;5033073;28;20472;-77
2023/05/29 11:30:10;;;;;;;2.50;1.93;;;27.70;45.10;;;;;;5033150;28;20444;-76
2023/05/29 11:32:38;;;;;;;2.60;1.60;;;28.00;44.50;;;;;;5034478;28;20455;-77
2023/05/29 11:35:09;;;;;;;4.40;2.30;;;28.20;44.30;;;;;;5037179;28;20443;-78
2023/05/29 11:37:37;;;;;;;3.57;2.10;;;28.40;43.00;;;;;;5037070;28;20530;-78
2023/05/29 11:40:05;;;;;;;2.77;1.97;;;28.60;42.60;;;;;;5036764;28;20945;-78
2023/05/29 11:42:32;;;;;;;3.20;1.90;;;28.40;43.40;;;;;;5037063;28;20531;-78
2023/05/29 11:45:13;;;;;;;2.63;1.90;;;28.20;43.20;;;;;;5036761;28;21017;-77
2023/05/29 11:47:53;;;;;;;2.50;1.77;;;27.90;40.80;;;;;;5036500;28;21030;-77
2023/05/29 11:50:20;;;;;;;2.37;1.53;;;27.70;41.10;;;;;;5036775;28;20444;-77
2023/05/29 11:52:47;;;;;;;2.10;1.50;;;27.90;43.10;;;;;;5036833;28;20432;-75
2023/05/29 11:55:14;;;;;;;2.43;1.73;;;27.70;42.40;;;;;;5036786;28;20497;-77
2023/05/29 11:57:41;;;;;;;4.13;1.60;;;27.30;43.40;;;;;;5036636;28;20517;-78
2023/05/29 12:00:10;;;;;;;2.60;1.47;;;27.40;44.70;;;;;;5036643;28;20459;-78
2023/05/29 12:02:38;;;;;;;3.80;2.10;;;27.20;42.50;;;;;;5036658;28;20444;-78
2023/05/29 12:05:07;;;;;;;2.60;1.67;;;27.20;42.70;;;;;;5036315;28;20451;-78
2023/05/29 12:07:34;;;;;;;2.40;1.40;;;27.20;43.40;;;;;;5036491;28;20471;-78
2023/05/29 12:10:10;;;;;;;3.07;1.87;;;27.00;41.80;;;;;;5036128;28;21007;-78
2023/05/29 12:12:36;;;;;;;2.47;1.77;;;27.30;43.50;;;;;;5036562;28;20489;-78
2023/05/29 12:15:06;;;;;;;4.77;2.23;;;27.80;43.70;;;;;;5036359;28;20447;-78
2023/05/29 12:17:33;;;;;;;2.13;1.60;;;27.80;42.00;;;;;;5035944;28;20475;-76
2023/05/29 12:20:01;;;;;;;2.23;1.87;;;27.60;40.60;;;;;;5036096;28;20448;-77
2023/05/29 12:22:35;;;;;;;3.17;1.90;;;27.70;41.40;;;;;;5036219;28;20492;-77
2023/05/29 12:25:07;;;;;;;2.70;2.00;;;27.50;40.80;;;;;;5035918;28;20816;-77
2023/05/29 12:27:37;;;;;;;2.37;1.60;;;27.20;38.90;;;;;;5035789;28;20875;-77
2023/05/29 12:30:08;;;;;;;2.23;1.80;;;27.30;40.60;;;;;;5036519;28;20562;-78
2023/05/29 12:32:55;;;;;;;2.37;1.60;;;27.50;41.50;;;;;;5035970;28;20980;-76
2023/05/29 12:35:25;;;;;;;2.27;1.53;;;27.80;39.30;;;;;;5006902;28;20526;-76
2023/05/29 12:37:55;;;;;;;2.10;1.63;;;28.00;39.50;;;;;;5035994;28;20463;-77
2023/05/29 12:40:23;;;;;;;2.50;1.50;;;28.00;39.00;;;;;;5036021;28;20494;-78
2023/05/29 12:42:56;;;;;;;2.30;1.60;;;27.90;38.40;;;;;;5036041;28;20498;-77
2023/05/29 12:45:25;;;;;;;1.93;1.33;;;27.70;37.80;;;;;;5034934;28;20924;-78
2023/05/29 12:47:53;;;;;;;2.90;1.70;;;27.30;39.30;;;;;;5035675;28;20553;-77
2023/05/29 12:50:26;;;;;;;2.50;1.70;;;27.00;40.80;;;;;;5035525;28;21015;-77
2023/05/29 12:52:58;;;;;;;2.50;1.93;;;27.30;40.50;;;;;;5035465;28;20446;-77
2023/05/29 12:55:25;;;;;;;2.40;1.80;;;27.50;39.00;;;;;;5035726;28;20498;-77
2023/05/29 12:57:53;;;;;;;2.77;1.67;;;27.50;39.50;;;;;;5035579;28;20464;-78
2023/05/29 13:00:20;;;;;;;2.30;1.67;;;27.60;40.00;;;;;;5035679;28;20546;-78
2023/05/29 13:02:47;;;;;;;2.07;1.57;;;27.60;39.70;;;;;;5035523;28;20450;-78
2023/05/29 13:05:15;;;;;;;1.80;1.20;;;27.80;39.40;;;;;;5035550;28;20501;-78
2023/05/29 13:07:43;;;;;;;2.20;1.77;;;28.30;38.80;;;;;;5035358;28;20472;-78
2023/05/29 13:10:10;;;;;;;2.10;1.70;;;28.50;39.50;;;;;;5035130;28;20900;-78
2023/05/29 13:12:37;;;;;;;3.20;1.40;;;28.50;38.90;;;;;;5035465;28;20436;-78
2023/05/29 13:15:05;;;;;;;2.00;1.37;;;28.50;38.10;;;;;;5038653;28;20454;-78
2023/05/29 13:17:32;;;;;;;2.30;1.50;;;28.80;38.50;;;;;;5038316;28;20535;-78
2023/05/29 13:19:59;;;;;;;3.07;1.70;;;29.00;38.60;;;;;;5037987;28;20442;-78
2023/05/29 13:22:30;;;;;;;2.70;2.00;;;28.80;37.70;;;;;;5037019;28;20455;-78
2023/05/29 13:24:59;;;;;;;2.47;1.77;;;28.40;37.30;;;;;;5035775;28;20948;-77
2023/05/29 13:27:26;;;;;;;3.33;1.53;;;28.20;36.90;;;;;;5035428;28;20550;-78
2023/05/29 13:29:53;;;;;;;2.47;1.70;;;28.00;37.40;;;;;;5035229;28;20610;-78
2023/05/29 13:32:20;;;;;;;2.07;1.40;;;27.60;38.10;;;;;;5036448;28;20451;-78
2023/05/29 13:34:46;;;;;;;1.90;1.50;;;27.60;37.70;;;;;;5035781;28;20450;-78
2023/05/29 13:37:13;;;;;;;2.20;1.60;;;27.60;37.20;;;;;;5034940;28;20518;-77
2023/05/29 13:39:40;;;;;;;2.80;1.60;;;27.60;38.60;;;;;;5034642;28;20936;-78
2023/05/29 13:42:09;;;;;;;2.40;1.47;;;28.00;37.70;;;;;;5034870;28;20447;-78
2023/05/29 13:44:38;;;;;;;2.33;1.80;;;28.10;38.50;;;;;;5034936;28;20860;-78
2023/05/29 13:47:07;;;;;;;2.87;1.80;;;28.10;38.70;;;;;;5034715;28;20463;-78
2023/05/29 13:49:33;;;;;;;2.40;1.53;;;28.10;38.30;;;;;;5034654;28;20846;-78
2023/05/29 13:52:00;;;;;;;2.30;1.60;;;28.10;38.50;;;;;;5034625;28;20459;-78
2023/05/29 13:54:29;;;;;;;3.33;1.70;;;28.40;37.50;;;;;;5034624;28;20491;-78
2023/05/29 13:56:56;;;;;;;2.20;2.00;;;28.30;37.10;;;;;;5033436;28;20474;-77
2023/05/29 13:59:24;;;;;;;2.47;1.30;;;28.10;37.30;;;;;;5034398;28;20443;-77
2023/05/29 14:01:51;;;;;;;2.77;1.67;;;28.00;37.00;;;;;;5034388;28;20477;-78
2023/05/29 14:04:18;;;;;;;2.67;1.97;;;28.00;36.40;;;;;;5034403;28;20505;-78
2023/05/29 14:06:45;;;;;;;3.10;2.57;;;27.90;36.40;;;;;;5034323;28;20471;-78
2023/05/29 14:09:11;;;;;;;2.07;1.60;;;28.00;37.50;;;;;;5034259;28;20483;-79
2023/05/29 14:11:38;;;;;;;2.63;1.70;;;28.20;37.60;;;;;;5034195;28;20458;-76
2023/05/29 14:14:05;;;;;;;2.83;1.50;;;28.40;36.70;;;;;;5034096;28;20444;-76
2023/05/29 14:16:40;;;;;;;2.43;1.40;;;28.40;38.10;;;;;;5091034;28;20546;-78
2023/05/29 14:19:06;;;;;;;2.73;1.57;;;28.30;36.20;;;;;;5090660;28;20934;-78
2023/05/29 14:21:33;;;;;;;3.57;1.77;;;28.60;36.10;;;;;;5090564;28;20497;-78
2023/05/29 14:24:00;;;;;;;2.70;2.10;;;28.80;37.00;;;;;;5090838;28;20478;-78
2023/05/29 14:26:26;;;;;;;2.63;1.80;;;29.00;35.40;;;;;;5090438;28;21005;-77
2023/05/29 14:28:53;;;;;;;2.43;1.77;;;28.80;35.80;;;;;;5091074;28;20858;-78
2023/05/29 14:31:20;;;;;;;2.90;1.87;;;28.90;36.50;;;;;;5090638;28;20452;-78
2023/05/29 14:33:48;;;;;;;2.40;1.80;;;28.70;35.50;;;;;;5090419;28;20862;-78
2023/05/29 14:36:14;;;;;;;2.00;1.50;;;28.50;35.90;;;;;;5090453;28;20900;-78
2023/05/29 14:38:43;;;;;;;2.33;1.70;;;28.30;35.10;;;;;;5090555;28;20543;-78
2023/05/29 14:41:10;;;;;;;3.77;1.40;;;28.10;35.90;;;;;;5090490;28;20449;-78
2023/05/29 14:43:38;;;;;;;2.23;2.00;;;28.20;35.90;;;;;;5090507;28;20444;-78
2023/05/29 14:46:05;;;;;;;2.00;1.37;;;28.60;36.90;;;;;;5089970;28;21047;-78
2023/05/29 14:48:32;;;;;;;3.00;1.90;;;28.70;36.40;;;;;;5090390;28;20494;-78
2023/05/29 14:51:00;;;;;;;2.60;1.70;;;28.80;36.70;;;;;;5090183;28;20441;-78
2023/05/29 14:53:26;;;;;;;2.53;1.53;;;28.90;36.70;;;;;;5090228;28;20441;-77
2023/05/29 14:55:55;;;;;;;2.00;1.50;;;28.90;36.40;;;;;;5090014;28;20534;-77
2023/05/29 14:58:22;;;;;;;2.40;1.60;;;28.80;34.80;;;;;;5090102;28;20459;-77
2023/05/29 15:00:49;;;;;;;2.40;1.70;;;28.90;36.80;;;;;;5090076;28;20445;-78
2023/05/29 15:03:15;;;;;;;2.73;1.83;;;29.10;35.70;;;;;;5090041;28;20452;-78
2023/05/29 15:05:42;;;;;;;3.77;1.90;;;29.40;35.30;;;;;;5089911;28;20499;-78
2023/05/29 15:08:10;;;;;;;2.50;1.70;;;29.60;35.30;;;;;;5089953;28;20441;-77
2023/05/29 15:10:37;;;;;;;2.20;1.50;;;29.40;35.00;;;;;;5089845;28;20441;-78
2023/05/29 15:13:06;;;;;;;2.30;1.60;;;29.30;36.00;;;;;;5089564;28;20983;-78
2023/05/29 15:15:33;;;;;;;2.03;1.50;;;29.10;36.90;;;;;;5089368;28;20480;-77
2023/05/29 15:18:01;;;;;;;2.80;1.83;;;29.00;36.30;;;;;;5090214;28;20449;-77
2023/05/29 15:20:28;;;;;;;3.13;1.60;;;28.60;35.90;;;;;;5089755;28;20455;-77
2023/05/29 15:22:55;;;;;;;2.67;1.83;;;28.30;35.60;;;;;;5090855;28;20445;-77
2023/05/29 15:25:24;;;;;;;2.97;1.90;;;28.10;36.10;;;;;;5089595;28;20441;-77
2023/05/29 15:27:51;;;;;;;2.27;1.53;;;27.90;36.30;;;;;;5077026;28;20463;-78
2023/05/29 15:30:20;;;;;;;2.00;1.70;;;28.10;35.60;;;;;;5076042;28;20446;-77
2023/05/29 15:32:47;;;;;;;2.10;1.67;;;28.10;36.00;;;;;;5075675;28;20935;-78
2023/05/29 15:35:16;;;;;;;2.30;1.53;;;27.90;36.70;;;;;;5075872;28;20580;-78
2023/05/29 15:37:43;;;;;;;4.23;2.40;;;28.00;36.70;;;;;;5075786;28;20844;-78
2023/05/29 15:40:11;;;;;;;2.50;1.93;;;27.90;37.30;;;;;;5075806;28;20499;-78
2023/05/29 15:42:39;;;;;;;2.40;1.60;;;27.90;37.10;;;;;;5075824;28;20446;-78
2023/05/29 15:45:07;;;;;;;2.40;1.83;;;28.10;37.30;;;;;;5075758;28;20448;-77
2023/05/29 15:47:34;;;;;;;2.70;1.60;;;28.10;37.10;;;;;;5075614;28;20474;-77
2023/05/29 15:50:00;;;;;;;2.30;1.70;;;28.00;37.50;;;;;;5075683;28;20450;-77
2023/05/29 15:52:27;;;;;;;2.33;1.50;;;28.00;37.80;;;;;;5075463;28;20862;-77
2023/05/29 15:54:54;;;;;;;2.10;1.63;;;27.90;38.10;;;;;;5075527;28;20445;-78
2023/05/29 15:57:20;;;;;;;2.70;1.83;;;27.60;38.60;;;;;;5075515;28;20469;-78
2023/05/29 15:59:49;;;;;;;2.47;1.50;;;27.50;39.90;;;;;;5076047;28;20450;-78
2023/05/29 16:02:15;;;;;;;2.93;1.50;;;27.40;39.40;;;;;;5075454;28;20485;-78
2023/05/29 16:04:42;;;;;;;3.03;1.90;;;27.40;39.10;;;;;;5075128;28;20935;-78
2023/05/29 16:07:09;;;;;;;2.07;1.40;;;27.40;38.50;;;;;;5075326;28;20466;-77
2023/05/29 16:09:37;;;;;;;2.43;1.77;;;27.10;38.50;;;;;;5075322;28;20499;-78
2023/05/29 16:12:06;;;;;;;2.00;1.40;;;26.90;39.90;;;;;;5075235;28;20450;-78
2023/05/29 16:14:33;;;;;;;2.00;1.40;;;26.70;38.90;;;;;;5075043;28;20511;-78
2023/05/29 16:17:00;;;;;;;2.40;1.70;;;27.00;39.80;;;;;;5075054;28;20485;-78
2023/05/29 16:19:27;;;;;;;2.20;1.80;;;27.10;40.30;;;;;;5075143;28;20450;-78
2023/05/29 16:21:54;;;;;;;2.23;1.50;;;27.10;40.30;;;;;;5074995;28;20449;-77
2023/05/29 16:24:21;;;;;;;2.87;1.53;;;26.90;40.20;;;;;;5074997;28;20479;-78
2023/05/29 16:26:47;;;;;;;1.80;1.17;;;27.00;40.60;;;;;;5074889;28;20466;-78
2023/05/29 16:29:14;;;;;;;2.00;1.17;;;27.20;40.40;;;;;;5074647;28;20499;-77
2023/05/29 16:31:41;;;;;;;2.40;1.63;;;27.10;40.10;;;;;;5074564;28;20479;-78
2023/05/29 16:34:09;;;;;;;3.07;1.63;;;27.00;40.10;;;;;;5074825;28;20507;-78
2023/05/29 16:36:35;;;;;;;3.17;1.67;;;26.80;40.80;;;;;;5074629;28;20481;-78
2023/05/29 16:39:02;;;;;;;4.50;1.67;;;26.80;41.30;;;;;;5073739;28;20491;-78
2023/05/29 16:41:28;;;;;;;2.30;1.70;;;26.80;41.90;;;;;;5074679;28;20479;-78
2023/05/29 16:43:55;;;;;;;3.10;1.60;;;26.80;41.00;;;;;;5074679;28;20450;-78
2023/05/29 16:46:23;;;;;;;2.20;1.47;;;26.60;40.30;;;;;;5074182;28;20975;-78
2023/05/29 16:48:49;;;;;;;3.03;1.60;;;26.50;40.60;;;;;;5074593;28;20539;-78
2023/05/29 16:51:17;;;;;;;2.17;1.40;;;26.50;40.70;;;;;;5074532;28;20442;-78
2023/05/29 16:53:44;;;;;;;2.10;1.37;;;26.60;40.50;;;;;;5074048;28;20864;-78
2023/05/29 16:56:11;;;;;;;2.30;1.50;;;26.70;40.60;;;;;;5074224;28;20490;-77
2023/05/29 16:58:37;;;;;;;2.27;1.40;;;26.80;40.80;;;;;;5074349;28;20446;-76